Time;durP1;ratioP1;P1;durP2;ratioP2;P2;SDS_P1;SDS_P2;PMS_P1;PMS_P2;Temp;Humidity;BMP_temperature;BMP_pressure;BME280_temperature;BME280_humidity;BME280_pressure;Samples;Min_cycle;Max_cycle;Signal;HPM_P1;HPM_P2
2022/04/18 00:01:56;;;;;;;15.33;8.60;;;8.20;99.90;;;;;;5012785;28;20188;-69
2022/04/18 00:04:45;;;;;;;18.50;8.30;;;8.20;99.90;;;;;;5013038;28;20184;-70
2022/04/18 00:07:47;;;;;;;13.67;7.53;;;8.20;99.90;;;;;;5009324;28;20200;-70
2022/04/18 00:10:35;;;;;;;15.10;7.43;;;8.30;99.90;;;;;;5003768;28;20250;-70
2022/04/18 00:13:31;;;;;;;14.57;8.10;;;8.20;99.90;;;;;;5009308;28;20315;-71
2022/04/18 00:16:16;;;;;;;16.63;8.30;;;8.10;99.90;;;;;;5009846;28;20228;-71
2022/04/18 00:19:00;;;;;;;20.33;9.20;;;8.10;99.90;;;;;;5010526;28;20208;-70
2022/04/18 00:21:51;;;;;;;17.43;9.73;;;8.10;99.90;;;;;;5007874;28;20204;-70
2022/04/18 00:24:42;;;;;;;19.43;10.37;;;8.00;99.90;;;;;;5010673;28;20307;-72
2022/04/18 00:28:12;;;;;;;19.20;10.30;;;8.00;99.90;;;;;;5001483;28;20205;-71
2022/04/18 00:31:09;;;;;;;22.27;10.67;;;7.90;99.90;;;;;;5008031;28;20191;-70
2022/04/18 00:34:03;;;;;;;20.37;9.63;;;7.90;99.90;;;;;;5014294;28;20192;-68
2022/04/18 00:38:02;;;;;;;20.47;10.00;;;7.80;99.90;;;;;;5013416;28;20205;-68
2022/04/18 00:40:52;;;;;;;18.23;9.37;;;7.80;99.90;;;;;;4999962;28;20204;-72
2022/04/18 00:43:38;;;;;;;15.10;9.20;;;7.80;99.90;;;;;;5020447;28;20200;-70
2022/04/18 00:46:23;;;;;;;13.60;8.20;;;7.80;99.90;;;;;;5011509;28;20211;-71
2022/04/18 00:49:09;;;;;;;13.47;8.20;;;7.70;99.90;;;;;;5012026;28;20214;-71
2022/04/18 00:51:55;;;;;;;14.43;7.97;;;7.70;99.90;;;;;;5014603;28;20203;-71
2022/04/18 00:54:58;;;;;;;28.93;13.57;;;7.60;99.90;;;;;;5015914;28;20180;-71
2022/04/18 00:57:49;;;;;;;23.90;11.90;;;7.60;99.90;;;;;;5003859;28;20200;-70
2022/04/18 01:00:37;;;;;;;23.33;10.73;;;7.60;99.90;;;;;;5001638;28;20238;-71
2022/04/18 01:03:21;;;;;;;14.43;8.63;;;7.50;99.90;;;;;;5015702;28;20671;-72
2022/04/18 01:06:05;;;;;;;12.07;7.60;;;7.50;99.90;;;;;;5011333;28;20219;-71
2022/04/18 01:08:50;;;;;;;13.63;6.83;;;7.50;99.90;;;;;;5015863;28;20211;-74
2022/04/18 01:11:41;;;;;;;10.93;6.60;;;7.50;99.90;;;;;;5008162;28;20695;-71
2022/04/18 01:14:26;;;;;;;11.70;6.80;;;7.50;99.90;;;;;;5013878;28;20192;-71
2022/04/18 01:17:10;;;;;;;9.63;6.20;;;7.40;99.90;;;;;;5009039;28;20196;-71
2022/04/18 01:19:55;;;;;;;9.40;6.47;;;7.40;99.90;;;;;;5009683;28;20183;-71
2022/04/18 01:22:53;;;;;;;11.53;5.93;;;7.40;99.90;;;;;;5043850;28;20167;-70
2022/04/18 01:28:58;;;;;;;8.83;6.20;;;7.30;99.90;;;;;;5002700;28;20258;-72
2022/04/18 01:31:43;;;;;;;12.63;7.23;;;7.30;99.90;;;;;;5008574;28;20191;-72
2022/04/18 01:34:28;;;;;;;10.43;7.33;;;7.30;99.90;;;;;;5031724;28;20191;-71
2022/04/18 01:37:16;;;;;;;11.07;6.53;;;7.20;99.90;;;;;;5024506;28;20251;-71
2022/04/18 01:40:05;;;;;;;8.53;6.60;;;7.20;99.90;;;;;;5013127;28;20211;-71
2022/04/18 01:42:50;;;;;;;11.60;6.93;;;7.20;99.90;;;;;;5010007;28;20168;-71
2022/04/18 01:45:41;;;;;;;11.27;7.40;;;7.10;99.90;;;;;;5016236;28;20215;-71
2022/04/18 01:48:58;;;;;;;13.17;7.23;;;7.10;99.90;;;;;;5006341;28;20272;-71
2022/04/18 01:51:58;;;;;;;10.97;7.13;;;7.00;99.90;;;;;;5012231;28;20203;-71
2022/04/18 01:54:56;;;;;;;11.87;7.70;;;7.00;99.90;;;;;;5000471;28;20285;-69
2022/04/18 01:58:08;;;;;;;;;;;;;;;;;;;;;
2022/04/18 02:00:54;;;;;;;11.60;7.47;;;7.00;99.90;;;;;;5021144;28;20191;-71
2022/04/18 02:03:42;;;;;;;12.20;7.83;;;6.90;99.90;;;;;;5005610;28;20211;-71
2022/04/18 02:06:27;;;;;;;11.83;7.23;;;6.90;99.90;;;;;;5007677;28;20619;-71
2022/04/18 02:09:11;;;;;;;13.27;7.73;;;6.90;99.90;;;;;;5001314;28;20212;-71
2022/04/18 02:12:21;;;;;;;14.77;8.20;;;6.80;99.90;;;;;;5011847;28;20188;-68
2022/04/18 02:15:21;;;;;;;13.33;7.60;;;6.80;99.90;;;;;;4988589;28;20219;-69
2022/04/18 02:21:42;;;;;;;11.87;7.57;;;6.80;99.90;;;;;;5004957;28;20199;-71
2022/04/18 02:24:27;;;;;;;13.30;8.53;;;6.70;99.90;;;;;;5007075;28;20736;-73
2022/04/18 02:27:11;;;;;;;11.13;7.40;;;6.70;99.90;;;;;;5016221;28;20200;-70
2022/04/18 02:29:55;;;;;;;12.37;7.90;;;6.70;99.90;;;;;;5020382;28;20199;-71
2022/04/18 02:32:49;;;;;;;10.60;7.30;;;6.70;99.90;;;;;;5023797;28;20175;-72
2022/04/18 02:35:34;;;;;;;12.10;7.47;;;6.60;99.90;;;;;;5006947;28;20358;-72
2022/04/18 02:38:18;;;;;;;14.13;8.10;;;6.60;99.90;;;;;;5011534;28;20239;-72
2022/04/18 02:41:03;;;;;;;11.73;8.33;;;6.60;99.90;;;;;;5018786;28;20179;-69
2022/04/18 02:43:48;;;;;;;13.47;8.27;;;6.60;99.90;;;;;;5011178;28;20243;-71
2022/04/18 02:46:35;;;;;;;11.37;7.30;;;6.50;99.90;;;;;;5007694;28;20230;-71
2022/04/18 02:49:30;;;;;;;12.20;8.13;;;6.50;99.90;;;;;;5010369;28;20229;-70
2022/04/18 02:52:15;;;;;;;14.63;7.57;;;6.50;99.90;;;;;;5011135;28;20236;-71
2022/04/18 02:55:04;;;;;;;13.83;8.03;;;6.50;99.90;;;;;;5022670;28;20304;-68
2022/04/18 02:57:48;;;;;;;13.53;8.10;;;6.50;99.90;;;;;;5015115;28;20192;-71
2022/04/18 03:00:33;;;;;;;12.57;8.03;;;6.50;99.90;;;;;;5015414;28;20188;-71
2022/04/18 03:03:17;;;;;;;11.53;7.90;;;6.50;99.90;;;;;;5032989;28;20193;-72
2022/04/18 03:06:01;;;;;;;13.70;8.70;;;6.50;99.90;;;;;;5029277;28;20295;-71
2022/04/18 03:08:45;;;;;;;13.67;8.60;;;6.40;99.90;;;;;;5044526;28;20207;-70
2022/04/18 03:11:30;;;;;;;13.03;7.97;;;6.40;99.90;;;;;;5042410;28;20180;-70
2022/04/18 03:14:27;;;;;;;16.93;8.53;;;6.40;99.90;;;;;;5039739;28;20199;-72
2022/04/18 03:17:12;;;;;;;18.97;8.93;;;6.40;99.90;;;;;;5006739;28;20272;-71
2022/04/18 03:19:56;;;;;;;13.97;8.87;;;6.30;99.90;;;;;;5026922;28;20190;-74
2022/04/18 03:22:40;;;;;;;17.27;9.00;;;6.40;99.90;;;;;;5039375;28;20180;-71
2022/04/18 03:25:25;;;;;;;15.07;8.40;;;6.30;99.90;;;;;;5005598;28;20266;-71
2022/04/18 03:28:09;;;;;;;18.80;9.60;;;6.30;99.90;;;;;;5016368;28;20222;-71
2022/04/18 03:30:53;;;;;;;15.13;9.47;;;6.30;99.90;;;;;;5008944;28;20196;-70
2022/04/18 03:33:38;;;;;;;14.20;8.70;;;6.30;99.90;;;;;;5012576;28;20192;-70
2022/04/18 03:42:30;;;;;;;14.23;8.97;;;6.20;99.90;;;;;;5025469;28;20210;-72
2022/04/18 03:45:15;;;;;;;19.43;9.23;;;6.20;99.90;;;;;;5041502;28;20239;-71
2022/04/18 03:47:59;;;;;;;12.87;8.83;;;6.20;99.90;;;;;;5012814;28;20211;-71
2022/04/18 03:50:44;;;;;;;16.50;8.90;;;6.20;99.90;;;;;;5012149;28;20215;-71
2022/04/18 03:53:32;;;;;;;14.50;8.70;;;6.10;99.90;;;;;;5012154;28;20199;-72
2022/04/18 03:56:16;;;;;;;15.93;8.90;;;6.10;99.90;;;;;;5024170;28;20261;-74
2022/04/18 03:59:01;;;;;;;17.00;9.07;;;6.10;99.90;;;;;;5042213;28;20550;-71
2022/04/18 04:01:46;;;;;;;14.57;8.13;;;6.10;99.90;;;;;;5046818;28;20234;-72
2022/04/18 04:04:30;;;;;;;12.80;8.20;;;6.10;99.90;;;;;;5028777;28;20225;-72
2022/04/18 04:07:15;;;;;;;10.30;7.53;;;6.00;99.90;;;;;;5012039;28;20235;-71
2022/04/18 04:10:00;;;;;;;13.33;8.20;;;6.00;99.90;;;;;;5012952;28;20651;-71
2022/04/18 04:12:44;;;;;;;12.93;7.83;;;5.90;99.90;;;;;;5012707;28;20270;-71
2022/04/18 04:15:29;;;;;;;12.57;7.90;;;5.90;99.90;;;;;;5011948;28;20292;-71
2022/04/18 04:18:14;;;;;;;11.50;7.60;;;5.80;99.90;;;;;;5004482;28;20192;-70
2022/04/18 04:20:58;;;;;;;11.37;7.87;;;5.80;99.90;;;;;;4993151;28;20531;-71
2022/04/18 04:23:43;;;;;;;14.03;7.63;;;5.80;99.90;;;;;;4993599;28;20681;-70
2022/04/18 04:26:28;;;;;;;12.87;7.93;;;5.70;99.90;;;;;;5011949;28;20268;-71
2022/04/18 04:29:12;;;;;;;9.10;6.60;;;5.70;99.90;;;;;;5011909;28;20304;-71
2022/04/18 04:31:57;;;;;;;11.43;7.40;;;5.70;99.90;;;;;;5012366;28;20172;-71
2022/04/18 04:34:42;;;;;;;12.57;7.50;;;5.70;99.90;;;;;;5006407;28;20191;-70
2022/04/18 04:37:27;;;;;;;12.53;7.80;;;5.70;99.90;;;;;;5006284;28;20201;-72
2022/04/18 04:40:12;;;;;;;9.47;6.70;;;5.70;99.90;;;;;;5006250;28;20195;-71
2022/04/18 04:42:56;;;;;;;11.70;8.10;;;5.70;99.90;;;;;;5011520;28;20207;-68
2022/04/18 04:45:40;;;;;;;12.57;7.80;;;5.70;99.90;;;;;;5022397;28;20301;-71
2022/04/18 04:48:25;;;;;;;11.47;7.10;;;5.60;99.90;;;;;;5009054;28;20238;-72
2022/04/18 04:51:09;;;;;;;11.80;7.80;;;5.60;99.90;;;;;;5011579;28;20264;-71
2022/04/18 04:53:53;;;;;;;11.33;7.67;;;5.60;99.90;;;;;;5011538;28;20205;-70
2022/04/18 04:56:38;;;;;;;11.10;7.73;;;5.60;99.90;;;;;;5010990;28;20254;-70
2022/04/18 04:59:22;;;;;;;14.80;7.87;;;5.60;99.90;;;;;;5020443;28;20215;-71
2022/04/18 05:02:06;;;;;;;13.77;7.60;;;5.60;99.90;;;;;;5020758;28;20281;-71
2022/04/18 05:04:51;;;;;;;13.47;7.97;;;5.60;99.90;;;;;;4999122;28;20231;-73
2022/04/18 05:07:36;;;;;;;11.77;7.67;;;5.60;99.90;;;;;;5006171;28;20204;-71
2022/04/18 05:10:20;;;;;;;12.83;7.77;;;5.60;99.90;;;;;;5006685;28;20246;-69
2022/04/18 05:13:05;;;;;;;10.50;7.20;;;5.50;99.90;;;;;;5004436;28;20187;-70
2022/04/18 05:15:49;;;;;;;13.43;7.23;;;5.60;99.90;;;;;;5011606;28;20218;-70
2022/04/18 05:18:34;;;;;;;12.00;8.30;;;5.60;99.90;;;;;;5042798;28;20197;-71
2022/04/18 05:21:18;;;;;;;13.57;7.50;;;5.70;99.90;;;;;;5038593;28;20184;-70
2022/04/18 05:24:04;;;;;;;12.60;7.73;;;5.70;99.90;;;;;;5010517;28;20204;-70
2022/04/18 05:26:49;;;;;;;13.00;8.07;;;5.70;99.90;;;;;;5011606;28;20229;-71
2022/04/18 05:29:41;;;;;;;12.50;8.03;;;5.70;99.90;;;;;;5009311;28;20262;-70
2022/04/18 05:32:26;;;;;;;12.53;7.37;;;5.70;99.90;;;;;;5008167;28;20230;-71
2022/04/18 05:35:10;;;;;;;10.00;7.33;;;5.80;99.90;;;;;;5007658;28;20242;-71
2022/04/18 05:37:54;;;;;;;14.87;7.90;;;5.80;99.90;;;;;;5004128;28;20218;-70
2022/04/18 05:40:38;;;;;;;13.03;8.13;;;5.80;99.90;;;;;;5007865;28;20186;-70
2022/04/18 05:43:23;;;;;;;12.13;7.70;;;5.90;99.90;;;;;;5001305;28;20204;-70
2022/04/18 05:46:07;;;;;;;11.53;7.47;;;5.90;99.90;;;;;;5018821;28;20211;-70
2022/04/18 05:48:51;;;;;;;14.73;8.07;;;6.00;99.90;;;;;;5005741;28;20227;-69
2022/04/18 05:51:37;;;;;;;13.33;8.03;;;6.00;99.90;;;;;;5008748;28;20556;-69
2022/04/18 05:54:21;;;;;;;12.37;7.30;;;6.00;99.90;;;;;;5008608;28;20223;-69
2022/04/18 05:57:06;;;;;;;12.77;7.77;;;6.10;99.90;;;;;;5012223;28;20196;-70
2022/04/18 05:59:50;;;;;;;12.23;7.83;;;6.10;99.90;;;;;;5005805;28;20238;-70
2022/04/18 06:02:35;;;;;;;11.13;7.70;;;6.20;99.90;;;;;;5025449;28;20195;-70
2022/04/18 06:05:19;;;;;;;12.93;8.20;;;6.30;99.90;;;;;;5017170;28;20218;-69
2022/04/18 06:08:04;;;;;;;10.13;6.70;;;6.30;99.90;;;;;;5003761;28;20226;-70
2022/04/18 06:10:48;;;;;;;11.37;7.20;;;6.40;99.90;;;;;;5029595;28;20175;-70
2022/04/18 06:13:32;;;;;;;11.90;8.10;;;6.40;99.90;;;;;;5023748;28;20622;-69
2022/04/18 06:16:17;;;;;;;14.17;7.87;;;6.50;99.90;;;;;;5005492;28;20292;-69
2022/04/18 06:19:01;;;;;;;13.03;7.63;;;6.60;99.90;;;;;;5032045;28;20192;-70
2022/04/18 06:21:46;;;;;;;14.17;7.87;;;6.70;99.90;;;;;;5016808;28;20215;-68
2022/04/18 06:24:30;;;;;;;13.77;7.80;;;6.80;99.90;;;;;;5018433;28;20196;-67
2022/04/18 06:27:15;;;;;;;12.07;6.90;;;6.90;99.90;;;;;;5011622;28;20206;-68
2022/04/18 06:29:59;;;;;;;11.10;6.73;;;7.10;99.90;;;;;;5011560;28;20247;-68
2022/04/18 06:32:43;;;;;;;10.97;7.33;;;7.20;99.90;;;;;;5021533;28;20684;-67
2022/04/18 06:35:27;;;;;;;10.60;7.10;;;7.30;99.90;;;;;;5006392;28;20212;-68
2022/04/18 06:38:11;;;;;;;11.47;7.53;;;7.40;99.90;;;;;;5011273;28;20192;-68
2022/04/18 06:40:59;;;;;;;10.37;7.00;;;7.50;99.90;;;;;;5012937;28;20187;-68
2022/04/18 06:43:43;;;;;;;9.67;6.37;;;7.60;99.90;;;;;;5012630;28;20224;-69
2022/04/18 06:46:27;;;;;;;12.97;6.40;;;7.70;99.90;;;;;;5013724;28;20221;-68
2022/04/18 06:49:11;;;;;;;8.90;6.87;;;7.80;99.90;;;;;;5015072;28;20711;-71
2022/04/18 06:51:55;;;;;;;12.43;6.87;;;7.90;99.90;;;;;;5014099;28;20264;-70
2022/04/18 06:54:40;;;;;;;11.97;6.90;;;8.10;99.90;;;;;;5006001;28;20180;-70
2022/04/18 06:57:24;;;;;;;10.00;6.37;;;8.20;99.90;;;;;;5016191;28;20212;-71
2022/04/18 07:00:09;;;;;;;11.67;7.27;;;8.30;99.90;;;;;;5015069;28;20271;-70
2022/04/18 07:02:53;;;;;;;10.03;6.63;;;8.40;99.90;;;;;;5011870;28;20227;-70
2022/04/18 07:05:40;;;;;;;9.57;6.63;;;8.50;99.90;;;;;;5015700;28;20211;-71
2022/04/18 07:08:24;;;;;;;9.43;5.97;;;8.60;99.90;;;;;;5033649;28;20207;-70
2022/04/18 07:11:08;;;;;;;8.77;6.07;;;8.80;99.90;;;;;;5017615;28;20227;-70
2022/04/18 07:13:52;;;;;;;11.00;6.83;;;8.90;99.90;;;;;;5013173;28;20712;-70
2022/04/18 07:16:36;;;;;;;10.97;6.70;;;9.10;99.90;;;;;;5014582;28;20208;-71
2022/04/18 07:19:20;;;;;;;10.37;6.27;;;9.10;99.90;;;;;;5016188;28;20243;-71
2022/04/18 07:22:05;;;;;;;9.83;6.50;;;9.20;99.90;;;;;;5020805;28;20665;-69
2022/04/18 07:24:49;;;;;;;8.40;5.73;;;9.30;99.90;;;;;;5020458;28;20215;-70
2022/04/18 07:27:33;;;;;;;8.37;6.00;;;9.40;99.90;;;;;;5024987;28;20288;-69
2022/04/18 07:30:17;;;;;;;9.23;5.87;;;9.50;99.90;;;;;;5011495;28;20249;-70
2022/04/18 07:33:02;;;;;;;8.87;5.20;;;9.60;99.90;;;;;;5019377;28;20269;-71
2022/04/18 07:35:46;;;;;;;7.93;5.80;;;9.70;99.90;;;;;;5020290;28;20218;-70
2022/04/18 07:38:49;;;;;;;9.57;5.70;;;9.80;99.90;;;;;;5037776;28;20203;-69
2022/04/18 07:41:33;;;;;;;8.43;6.27;;;9.90;99.90;;;;;;5013049;28;20202;-69
2022/04/18 07:44:17;;;;;;;7.60;5.63;;;10.00;99.90;;;;;;5018868;28;20235;-68
2022/04/18 07:47:01;;;;;;;7.90;5.57;;;10.10;99.90;;;;;;5021009;28;20222;-69
2022/04/18 07:49:46;;;;;;;9.07;5.40;;;10.20;99.90;;;;;;5042267;28;20211;-69
2022/04/18 07:52:30;;;;;;;6.90;4.53;;;10.30;99.90;;;;;;5023156;28;20199;-69
2022/04/18 07:55:14;;;;;;;8.83;4.53;;;10.40;99.90;;;;;;5012425;28;20250;-69
2022/04/18 07:57:58;;;;;;;6.50;4.00;;;10.60;99.90;;;;;;5019157;28;20262;-70
2022/04/18 08:00:42;;;;;;;6.67;3.80;;;10.70;99.90;;;;;;5018912;28;20179;-69
2022/04/18 08:03:26;;;;;;;5.90;4.00;;;10.80;99.90;;;;;;5030403;28;20655;-70
2022/04/18 08:06:10;;;;;;;4.40;3.00;;;10.90;99.90;;;;;;5013973;28;20217;-70
2022/04/18 08:08:55;;;;;;;5.97;3.20;;;11.00;99.90;;;;;;5005347;28;20219;-69
2022/04/18 08:11:40;;;;;;;4.57;2.53;;;11.10;99.90;;;;;;5022224;28;20191;-70
2022/04/18 08:14:25;;;;;;;3.17;2.47;;;11.30;99.90;;;;;;5010364;28;20728;-70
2022/04/18 08:17:09;;;;;;;4.13;2.83;;;11.40;99.90;;;;;;5004245;28;20192;-69
2022/04/18 08:19:53;;;;;;;5.57;3.40;;;11.50;99.90;;;;;;5012869;28;20195;-70
2022/04/18 08:22:38;;;;;;;5.87;3.23;;;11.60;99.90;;;;;;5011203;28;20663;-69
2022/04/18 08:25:22;;;;;;;6.20;3.20;;;11.70;99.90;;;;;;5013589;28;20649;-70
2022/04/18 08:28:06;;;;;;;5.90;3.50;;;11.80;99.90;;;;;;5018841;28;20270;-70
2022/04/18 08:30:51;;;;;;;4.40;2.83;;;11.90;99.90;;;;;;5025102;28;20191;-70
2022/04/18 08:33:36;;;;;;;4.77;2.77;;;12.00;99.90;;;;;;5010435;28;20225;-71
2022/04/18 08:36:20;;;;;;;4.43;2.90;;;12.00;99.90;;;;;;5025300;28;20296;-70
2022/04/18 08:39:04;;;;;;;4.27;3.10;;;12.10;99.90;;;;;;5028404;28;20211;-70
2022/04/18 08:41:51;;;;;;;4.43;2.80;;;12.20;99.90;;;;;;5000358;28;20235;-71
2022/04/18 08:44:37;;;;;;;5.47;2.53;;;12.30;99.90;;;;;;5012932;28;20203;-70
2022/04/18 08:53:31;;;;;;;3.50;2.37;;;12.60;99.90;;;;;;4994454;28;20227;-71
2022/04/18 08:56:15;;;;;;;3.87;2.67;;;12.70;99.90;;;;;;5003034;28;20831;-69
2022/04/18 08:58:59;;;;;;;3.23;2.93;;;12.70;99.90;;;;;;5005849;28;20176;-71
2022/04/18 09:01:52;;;;;;;4.77;2.43;;;12.70;99.90;;;;;;4992167;28;20177;-70
2022/04/18 09:04:37;;;;;;;4.60;2.90;;;12.80;99.90;;;;;;5024588;28;20208;-70
2022/04/18 09:07:21;;;;;;;3.50;2.77;;;12.80;99.90;;;;;;5011082;28;20235;-70
2022/04/18 09:10:05;;;;;;;4.00;2.80;;;12.90;99.90;;;;;;5011254;28;20188;-70
2022/04/18 09:12:50;;;;;;;3.90;2.60;;;13.00;99.90;;;;;;5013660;28;20202;-71
2022/04/18 09:15:35;;;;;;;3.97;2.67;;;13.10;99.90;;;;;;5012823;28;20335;-70
2022/04/18 09:18:23;;;;;;;4.30;2.70;;;13.20;99.90;;;;;;5022016;28;20331;-70
2022/04/18 09:21:07;;;;;;;5.40;2.97;;;13.20;99.90;;;;;;5029157;28;20191;-71
2022/04/18 09:23:51;;;;;;;4.77;3.13;;;13.20;99.90;;;;;;5010127;28;20239;-70
2022/04/18 09:26:35;;;;;;;4.47;3.13;;;13.30;99.90;;;;;;5010978;28;20251;-70
2022/04/18 09:29:19;;;;;;;5.23;3.00;;;13.30;99.90;;;;;;5001520;28;20216;-70
2022/04/18 09:32:07;;;;;;;6.20;3.10;;;13.40;99.90;;;;;;5006127;28;20327;-72
2022/04/18 09:35:03;;;;;;;3.20;2.63;;;13.50;99.90;;;;;;5004846;28;20207;-71
2022/04/18 09:37:51;;;;;;;4.40;2.60;;;13.60;99.90;;;;;;5020261;28;20180;-71
2022/04/18 09:40:36;;;;;;;3.37;2.77;;;13.70;99.90;;;;;;5017420;28;20586;-70
2022/04/18 09:43:22;;;;;;;2.83;2.50;;;13.60;99.90;;;;;;5011090;28;20734;-70
2022/04/18 09:46:08;;;;;;;4.80;3.00;;;13.70;99.90;;;;;;5010550;28;20295;-70
2022/04/18 09:48:59;;;;;;;3.90;2.60;;;13.70;99.90;;;;;;5004191;28;20289;-71
2022/04/18 09:51:45;;;;;;;2.77;2.20;;;13.80;99.90;;;;;;5009760;28;20559;-71
2022/04/18 09:54:32;;;;;;;2.30;2.07;;;13.80;99.90;;;;;;5014446;28;20191;-72
2022/04/18 09:57:27;;;;;;;3.73;2.23;;;13.90;99.90;;;;;;5009765;28;20218;-71
2022/04/18 10:00:11;;;;;;;2.70;2.13;;;14.00;99.90;;;;;;5009782;28;20295;-71
2022/04/18 10:03:01;;;;;;;2.80;2.40;;;14.10;99.90;;;;;;5015662;28;20183;-71
2022/04/18 10:05:48;;;;;;;2.90;2.17;;;14.10;99.90;;;;;;5023608;28;20259;-72
2022/04/18 10:08:34;;;;;;;2.47;1.80;;;14.20;99.90;;;;;;5007786;28;20702;-71
2022/04/18 10:11:19;;;;;;;1.97;1.80;;;14.20;99.90;;;;;;5008473;28;20739;-72
2022/04/18 10:14:03;;;;;;;3.80;2.27;;;14.20;99.90;;;;;;5008784;28;20195;-71
2022/04/18 10:16:47;;;;;;;2.20;2.00;;;14.30;99.90;;;;;;5009177;28;20254;-71
2022/04/18 10:19:49;;;;;;;2.70;2.20;;;14.40;99.90;;;;;;5010232;28;20184;-71
2022/04/18 10:23:03;;;;;;;3.67;2.27;;;14.40;99.90;;;;;;5009025;28;20542;-72
2022/04/18 10:26:22;;;;;;;3.27;1.93;;;14.50;99.90;;;;;;5010330;28;20222;-71
2022/04/18 10:29:18;;;;;;;2.10;1.80;;;14.60;99.90;;;;;;5007350;28;20212;-71
2022/04/18 10:32:04;;;;;;;2.73;1.97;;;14.60;99.90;;;;;;5009166;28;20195;-72
2022/04/18 10:34:50;;;;;;;1.90;1.57;;;14.70;99.90;;;;;;5002660;28;20247;-72
2022/04/18 10:37:41;;;;;;;2.40;1.90;;;14.80;99.90;;;;;;5013173;28;20200;-72
2022/04/18 10:40:26;;;;;;;2.77;1.53;;;14.90;99.90;;;;;;5025042;28;20272;-73
2022/04/18 10:43:10;;;;;;;1.37;1.10;;;15.00;99.90;;;;;;5027710;28;20242;-71
2022/04/18 10:46:18;;;;;;;1.80;1.33;;;15.00;99.90;;;;;;5032393;28;20749;-70
2022/04/18 10:49:12;;;;;;;3.33;1.40;;;15.00;99.90;;;;;;5010873;28;20248;-71
2022/04/18 10:51:57;;;;;;;2.67;1.30;;;15.00;99.90;;;;;;5012446;28;20209;-72
2022/04/18 10:54:59;;;;;;;2.10;1.20;;;15.10;99.90;;;;;;5011453;28;20196;-72
2022/04/18 10:57:43;;;;;;;4.37;1.50;;;15.10;99.90;;;;;;5026109;28;20234;-72
2022/04/18 11:00:47;;;;;;;1.90;1.50;;;15.10;99.90;;;;;;5008363;28;20195;-71
2022/04/18 11:03:35;;;;;;;5.17;1.67;;;15.20;99.90;;;;;;5008552;28;20250;-74
2022/04/18 11:06:25;;;;;;;1.90;1.43;;;15.20;99.90;;;;;;5011767;28;20212;-72
2022/04/18 11:09:16;;;;;;;2.13;1.73;;;15.40;99.90;;;;;;5011740;28;20267;-70
2022/04/18 11:12:05;;;;;;;1.83;1.50;;;15.40;99.90;;;;;;5007941;28;20296;-73
2022/04/18 11:14:51;;;;;;;2.07;1.60;;;15.40;99.90;;;;;;5013078;28;20628;-70
2022/04/18 11:17:40;;;;;;;2.87;1.43;;;15.50;99.90;;;;;;5022315;28;20200;-73
2022/04/18 11:20:33;;;;;;;1.77;1.67;;;15.40;99.90;;;;;;5023263;28;20210;-72
2022/04/18 11:23:22;;;;;;;3.03;1.60;;;15.50;99.90;;;;;;5012088;28;20555;-73
2022/04/18 11:26:07;;;;;;;2.20;1.50;;;15.60;99.90;;;;;;5011012;28;20212;-71
2022/04/18 11:28:52;;;;;;;1.63;1.40;;;15.60;99.90;;;;;;5011233;28;20208;-72
2022/04/18 11:31:37;;;;;;;3.87;1.50;;;15.60;99.90;;;;;;5003009;28;20204;-73
2022/04/18 11:34:25;;;;;;;2.40;1.67;;;15.60;99.90;;;;;;5012261;28;20269;-72
2022/04/18 11:37:12;;;;;;;1.60;1.50;;;15.60;99.90;;;;;;5004005;28;20192;-72
2022/04/18 11:39:59;;;;;;;1.63;1.30;;;15.60;99.90;;;;;;5023039;28;20680;-72
2022/04/18 11:42:45;;;;;;;2.03;1.40;;;15.60;99.90;;;;;;4997112;28;20198;-73
2022/04/18 11:45:30;;;;;;;3.17;1.47;;;15.60;99.90;;;;;;5015594;28;20223;-73
2022/04/18 11:48:14;;;;;;;1.43;1.20;;;15.80;99.90;;;;;;5033144;28;20288;-73
2022/04/18 11:50:58;;;;;;;1.73;1.50;;;15.90;99.90;;;;;;5020233;28;20195;-73
2022/04/18 11:53:42;;;;;;;2.63;1.37;;;15.90;99.90;;;;;;5011697;28;20331;-73
2022/04/18 11:56:26;;;;;;;2.03;1.43;;;16.00;99.90;;;;;;5025220;28;20216;-74
2022/04/18 11:59:10;;;;;;;1.73;1.30;;;16.00;99.90;;;;;;5010333;28;20212;-74
2022/04/18 12:08:03;;;;;;;2.80;1.23;;;16.20;99.90;;;;;;5015435;28;20667;-73
2022/04/18 12:10:47;;;;;;;3.53;1.60;;;16.10;99.90;;;;;;4997021;28;20683;-73
2022/04/18 12:13:31;;;;;;;1.73;1.40;;;16.10;99.90;;;;;;5015857;28;20558;-72
2022/04/18 12:16:19;;;;;;;2.20;1.50;;;16.00;99.90;;;;;;5020598;28;20230;-74
2022/04/18 12:19:04;;;;;;;1.73;1.30;;;16.00;99.90;;;;;;5032552;28;20187;-74
2022/04/18 12:21:52;;;;;;;2.37;1.73;;;16.10;99.90;;;;;;5019398;28;20203;-74
2022/04/18 12:24:40;;;;;;;3.40;1.93;;;16.20;99.90;;;;;;5021881;28;20196;-74
2022/04/18 12:27:38;;;;;;;2.10;1.60;;;16.20;99.90;;;;;;5009608;28;20793;-74
2022/04/18 12:30:22;;;;;;;1.60;1.47;;;16.20;99.90;;;;;;5006256;28;20724;-76
2022/04/18 12:33:21;;;;;;;2.53;1.67;;;16.20;99.90;;;;;;5006740;28;20200;-73
2022/04/18 12:36:06;;;;;;;3.63;1.87;;;16.20;99.90;;;;;;5009544;28;20235;-72
2022/04/18 12:38:51;;;;;;;3.83;2.23;;;16.30;99.90;;;;;;5007108;28;20307;-75
2022/04/18 12:41:39;;;;;;;3.67;1.93;;;16.40;99.90;;;;;;5008855;28;20235;-74
2022/04/18 12:44:24;;;;;;;1.87;1.40;;;16.40;99.90;;;;;;5005868;28;20207;-73
2022/04/18 12:47:19;;;;;;;3.27;1.80;;;16.30;99.90;;;;;;4999928;28;20286;-74
2022/04/18 12:50:11;;;;;;;2.40;1.90;;;16.20;99.90;;;;;;5008464;28;20207;-74
2022/04/18 12:52:55;;;;;;;3.07;1.80;;;16.20;99.90;;;;;;5015361;28;20215;-75
2022/04/18 12:55:39;;;;;;;1.67;1.47;;;16.20;99.90;;;;;;5011171;28;20220;-73
2022/04/18 12:58:23;;;;;;;3.83;1.87;;;16.30;99.90;;;;;;5009924;28;20278;-72
2022/04/18 13:01:08;;;;;;;2.60;2.00;;;16.40;99.90;;;;;;5014934;28;20196;-74
2022/04/18 13:03:56;;;;;;;3.57;1.80;;;16.30;99.90;;;;;;5023084;28;20251;-73
2022/04/18 13:06:40;;;;;;;1.93;1.77;;;16.30;99.90;;;;;;5027195;28;20628;-74
2022/04/18 13:09:25;;;;;;;3.13;1.77;;;16.30;99.90;;;;;;5012910;28;20220;-73
2022/04/18 13:12:10;;;;;;;3.20;1.90;;;16.40;99.90;;;;;;5012304;28;20354;-72
2022/04/18 13:15:05;;;;;;;1.63;1.50;;;16.40;99.90;;;;;;5008981;28;20247;-74
2022/04/18 13:18:05;;;;;;;3.50;1.80;;;16.40;99.90;;;;;;5011715;28;20192;-73
2022/04/18 13:20:49;;;;;;;2.53;1.93;;;16.50;99.90;;;;;;5006607;28;20200;-73
2022/04/18 13:23:33;;;;;;;2.00;1.83;;;16.50;99.90;;;;;;5008940;28;20563;-73
2022/04/18 13:26:17;;;;;;;1.87;1.53;;;16.50;99.90;;;;;;5009513;28;20239;-74
2022/04/18 13:29:02;;;;;;;2.80;1.70;;;16.50;99.90;;;;;;5016308;28;20275;-73
2022/04/18 13:31:46;;;;;;;3.50;2.27;;;16.60;99.90;;;;;;5012401;28;20697;-73
2022/04/18 13:34:30;;;;;;;2.70;1.87;;;16.50;99.90;;;;;;5028393;28;20195;-74
2022/04/18 13:37:14;;;;;;;3.30;1.60;;;16.50;99.90;;;;;;5011581;28;20234;-72
2022/04/18 13:39:59;;;;;;;2.73;1.70;;;16.50;99.90;;;;;;5008904;28;20231;-73
2022/04/18 13:42:44;;;;;;;4.57;1.63;;;16.50;99.90;;;;;;5012129;28;20208;-71
2022/04/18 13:45:28;;;;;;;3.40;1.70;;;16.50;99.90;;;;;;5009210;28;20239;-70
2022/04/18 13:48:14;;;;;;;2.33;1.60;;;16.50;99.90;;;;;;5015542;28;20294;-74
2022/04/18 13:51:02;;;;;;;2.43;1.90;;;16.50;99.90;;;;;;5014403;28;20240;-73
2022/04/18 13:53:48;;;;;;;1.70;1.60;;;16.40;99.90;;;;;;5009262;28;20207;-73
2022/04/18 13:56:32;;;;;;;2.80;1.80;;;16.50;99.90;;;;;;5008375;28;20584;-71
2022/04/18 13:59:17;;;;;;;2.80;1.80;;;16.50;99.90;;;;;;5015524;28;20276;-71
2022/04/18 14:02:02;;;;;;;3.43;2.30;;;16.50;99.90;;;;;;5011193;28;20223;-71
2022/04/18 14:04:46;;;;;;;2.10;1.70;;;16.50;99.90;;;;;;5015885;28;20264;-71
2022/04/18 14:07:30;;;;;;;3.40;1.90;;;16.50;99.90;;;;;;5010038;28;20199;-71
2022/04/18 14:10:14;;;;;;;4.57;2.37;;;16.50;99.90;;;;;;5015372;28;20265;-71
2022/04/18 14:12:59;;;;;;;2.20;2.00;;;16.60;99.90;;;;;;5011208;28;20211;-71
2022/04/18 14:21:49;;;;;;;5.30;2.30;;;16.60;99.90;;;;;;5011846;28;20191;-71
2022/04/18 14:24:33;;;;;;;3.13;2.10;;;16.70;99.90;;;;;;5008988;28;20199;-73
2022/04/18 14:27:17;;;;;;;4.67;2.13;;;16.70;99.90;;;;;;5009909;28;20192;-71
2022/04/18 14:30:01;;;;;;;5.50;2.20;;;16.70;99.90;;;;;;5014721;28;20227;-70
2022/04/18 14:32:46;;;;;;;3.23;2.30;;;16.70;99.90;;;;;;5014946;28;20738;-72
2022/04/18 14:35:30;;;;;;;3.53;2.10;;;16.80;99.90;;;;;;5030541;28;20259;-71
2022/04/18 14:38:15;;;;;;;3.20;2.30;;;16.80;99.90;;;;;;5019922;28;20675;-71
2022/04/18 14:40:59;;;;;;;2.67;2.00;;;16.80;99.90;;;;;;5027127;28;20679;-74
2022/04/18 14:43:43;;;;;;;3.10;2.20;;;16.80;99.90;;;;;;5011411;28;20283;-72
2022/04/18 14:46:28;;;;;;;3.27;2.00;;;16.80;99.90;;;;;;5013905;28;20219;-71
2022/04/18 14:49:12;;;;;;;4.10;2.30;;;16.80;99.90;;;;;;5013503;28;20214;-73
2022/04/18 14:51:57;;;;;;;3.03;1.70;;;16.80;99.90;;;;;;5014991;28;20204;-73
2022/04/18 14:54:41;;;;;;;2.83;2.17;;;16.80;99.90;;;;;;5013194;28;20196;-74
2022/04/18 14:57:25;;;;;;;2.50;1.80;;;16.80;99.90;;;;;;5014787;28;20188;-74
2022/04/18 15:00:10;;;;;;;2.20;1.73;;;16.90;99.90;;;;;;5013778;28;20200;-73
2022/04/18 15:02:54;;;;;;;2.87;1.97;;;16.90;99.90;;;;;;5013468;28;20200;-73